createdAt,value
2023-03-21T00:00:36.527Z,64.07
2023-03-21T00:01:36.505Z,63.96
2023-03-21T00:02:36.564Z,63.96
2023-03-21T00:03:36.796Z,64.07
2023-03-21T00:04:50.467Z,64.07
2023-03-21T00:05:36.991Z,63.76
2023-03-21T00:06:41.485Z,63.76
2023-03-21T00:07:36.439Z,64.48
2023-03-21T00:08:36.426Z,64.27
2023-03-21T00:09:36.447Z,63.96
2023-03-21T00:10:43.542Z,63.56
2023-03-21T00:11:37.393Z,64.99
2023-03-21T00:12:36.377Z,64.48
2023-03-21T00:13:36.365Z,64.81
2023-03-21T00:14:36.355Z,64.92
2023-03-21T00:15:48.460Z,64.71
2023-03-21T00:16:36.735Z,64.99
2023-03-21T00:17:41.340Z,64.48
2023-03-21T00:18:36.310Z,64.20
2023-03-21T00:19:36.296Z,64.89
2023-03-21T00:20:36.291Z,64.99
2023-03-21T00:21:48.674Z,64.30
2023-03-21T00:22:36.294Z,65.53
2023-03-21T00:23:36.262Z,65.43
2023-03-21T00:24:36.278Z,65.02
2023-03-21T00:25:36.498Z,65.43
2023-03-21T00:26:36.233Z,65.43
2023-03-21T00:27:53.202Z,65.43
2023-03-21T00:28:41.220Z,65.63
2023-03-21T00:29:36.181Z,65.43
2023-03-21T00:30:36.174Z,65.43
2023-03-21T00:31:36.169Z,65.12
2023-03-21T00:32:42.831Z,65.43
2023-03-21T00:33:36.192Z,65.02
2023-03-21T00:34:42.881Z,65.05
2023-03-21T00:35:57.944Z,65.53
2023-03-21T00:36:36.179Z,65.73
2023-03-21T00:37:36.100Z,66.14
2023-03-21T00:38:36.103Z,66.35
2023-03-21T00:39:41.140Z,65.94
2023-03-21T00:40:43.650Z,65.94
2023-03-21T00:41:43.001Z,65.63
2023-03-21T00:42:37.062Z,66.04
2023-03-21T00:43:36.024Z,65.87
2023-03-21T00:44:36.014Z,66.35
2023-03-21T00:45:36.329Z,66.17
2023-03-21T00:46:45.546Z,66.25
2023-03-21T00:47:37.071Z,66.14
2023-03-21T00:48:36.090Z,65.94
2023-03-21T00:49:35.958Z,66.45
2023-03-21T00:50:40.971Z,66.35
2023-03-21T00:51:35.953Z,65.87
2023-03-21T00:52:40.908Z,65.84
2023-03-21T00:53:35.913Z,65.73
2023-03-21T00:54:35.925Z,65.66
2023-03-21T00:55:36.135Z,65.77
2023-03-21T00:56:35.889Z,65.84
2023-03-21T00:57:42.239Z,65.73
2023-03-21T00:58:35.859Z,65.84
2023-03-21T00:59:35.845Z,66.45
2023-03-21T01:00:35.914Z,65.63
2023-03-21T01:01:40.893Z,66.45
2023-03-21T01:02:35.821Z,66.55
2023-03-21T01:03:35.815Z,66.66
2023-03-21T01:04:35.791Z,66.86
2023-03-21T01:05:36.030Z,66.48
2023-03-21T01:06:35.769Z,66.99
2023-03-21T01:07:35.763Z,66.86
2023-03-21T01:08:50.499Z,66.86
2023-03-21T01:09:35.744Z,66.96
2023-03-21T01:10:35.764Z,66.86
2023-03-21T01:11:35.711Z,66.66
2023-03-21T01:12:40.745Z,66.96
2023-03-21T01:13:38.382Z,67.30
2023-03-21T01:14:35.681Z,66.86
2023-03-21T01:15:35.945Z,67.30
2023-03-21T01:16:35.688Z,66.99
2023-03-21T01:17:35.652Z,66.86
2023-03-21T01:18:35.641Z,66.96
2023-03-21T01:19:50.583Z,66.69
2023-03-21T01:20:35.610Z,66.89
2023-03-21T01:21:35.620Z,66.89
2023-03-21T01:22:35.608Z,66.96
2023-03-21T01:23:40.604Z,66.89
2023-03-21T01:24:37.799Z,66.96
2023-03-21T01:25:35.553Z,66.96
2023-03-21T01:26:35.569Z,67.40
2023-03-21T01:27:35.558Z,68.01
2023-03-21T01:28:35.529Z,67.57
2023-03-21T01:29:35.506Z,67.07
2023-03-21T01:30:41.730Z,67.98
2023-03-21T01:31:35.507Z,67.68
2023-03-21T01:32:35.474Z,66.99
2023-03-21T01:33:35.505Z,67.10
2023-03-21T01:34:40.486Z,67.71
2023-03-21T01:35:48.009Z,67.71
2023-03-21T01:36:35.510Z,67.19
2023-03-21T01:37:35.418Z,67.10
2023-03-21T01:38:35.405Z,67.19
2023-03-21T01:39:35.436Z,67.60
2023-03-21T01:40:35.382Z,67.19
2023-03-21T01:41:44.390Z,67.19
2023-03-21T01:42:36.385Z,68.01
2023-03-21T01:43:35.349Z,67.60
2023-03-21T01:44:35.347Z,68.32
2023-03-21T01:45:40.544Z,67.81
2023-03-21T01:46:47.823Z,67.30
2023-03-21T01:47:35.305Z,67.60
2023-03-21T01:48:35.302Z,67.30
2023-03-21T01:49:35.307Z,67.71
2023-03-21T01:50:35.270Z,67.19
2023-03-21T01:51:35.283Z,67.71
2023-03-21T01:52:38.337Z,67.50
2023-03-21T01:53:35.241Z,67.40
2023-03-21T01:54:35.239Z,67.60
2023-03-21T01:55:35.510Z,67.60
2023-03-21T01:56:40.228Z,67.71
2023-03-21T01:57:43.606Z,67.60
2023-03-21T01:58:35.203Z,68.32
2023-03-21T01:59:35.171Z,68.01
2023-03-21T02:00:35.175Z,67.91
2023-03-21T02:01:35.145Z,67.71
2023-03-21T02:02:35.141Z,67.71
2023-03-21T02:03:36.421Z,68.12
2023-03-21T02:04:35.111Z,67.60
2023-03-21T02:05:35.431Z,67.91
2023-03-21T02:06:35.090Z,68.42
2023-03-21T02:07:40.099Z,68.32
2023-03-21T02:08:39.581Z,67.81
2023-03-21T02:09:35.076Z,68.01
2023-03-21T02:10:35.054Z,68.12
2023-03-21T02:11:35.030Z,67.91
2023-03-21T02:12:35.020Z,67.91
2023-03-21T02:13:35.007Z,68.01
2023-03-21T02:14:35.023Z,68.22
2023-03-21T02:15:35.437Z,68.01
2023-03-21T02:16:34.991Z,68.63
2023-03-21T02:17:34.959Z,68.63
2023-03-21T02:18:39.979Z,68.12
2023-03-21T02:19:41.672Z,68.84
2023-03-21T02:20:34.933Z,68.63
2023-03-21T02:21:34.955Z,68.12
2023-03-21T02:22:34.913Z,68.52
2023-03-21T02:23:34.899Z,68.42
2023-03-21T02:24:34.890Z,68.22
2023-03-21T02:25:34.878Z,68.63
2023-03-21T02:26:41.947Z,68.63
2023-03-21T02:27:34.870Z,68.63
2023-03-21T02:28:34.844Z,68.63
2023-03-21T02:29:39.877Z,68.32
2023-03-21T02:30:42.652Z,68.46
2023-03-21T02:31:34.894Z,68.25
2023-03-21T02:32:37.691Z,68.76
2023-03-21T02:33:34.819Z,69.27
2023-03-21T02:34:34.777Z,68.35
2023-03-21T02:35:39.136Z,68.22
2023-03-21T02:36:34.831Z,68.97
2023-03-21T02:37:38.370Z,68.87
2023-03-21T02:38:34.732Z,69.14
2023-03-21T02:39:34.764Z,69.17
2023-03-21T02:40:40.071Z,68.66
2023-03-21T02:41:40.144Z,69.38
2023-03-21T02:42:34.700Z,68.76
2023-03-21T02:43:34.684Z,68.76
2023-03-21T02:44:34.671Z,68.97
2023-03-21T02:45:34.678Z,69.38
2023-03-21T02:46:43.948Z,69.10
2023-03-21T02:47:35.636Z,69.68
2023-03-21T02:48:48.197Z,69.58
2023-03-21T02:49:35.613Z,70.09
2023-03-21T02:50:34.717Z,69.92
2023-03-21T02:51:39.701Z,69.68
2023-03-21T02:52:39.628Z,69.79
2023-03-21T02:53:35.573Z,70.29
2023-03-21T02:54:47.204Z,70.20
2023-03-21T02:55:35.550Z,69.17
2023-03-21T02:56:34.535Z,69.27
2023-03-21T02:57:42.650Z,69.10
2023-03-21T02:58:34.534Z,69.48
2023-03-21T02:59:39.428Z,70.20
2023-03-21T03:00:34.593Z,70.20
2023-03-21T03:01:34.552Z,70.09
2023-03-21T03:02:39.506Z,69.48
2023-03-21T03:03:35.106Z,70.20
2023-03-21T03:04:34.525Z,69.58
2023-03-21T03:05:34.442Z,69.58
2023-03-21T03:06:34.430Z,69.68
2023-03-21T03:07:34.456Z,70.20
2023-03-21T03:08:50.154Z,70.09
2023-03-21T03:09:35.394Z,70.23
2023-03-21T03:10:34.410Z,69.99
2023-03-21T03:11:34.385Z,70.20
2023-03-21T03:12:34.372Z,70.23
2023-03-21T03:13:39.374Z,71.15
2023-03-21T03:14:49.849Z,71.36
2023-03-21T03:15:35.390Z,70.74
2023-03-21T03:16:34.333Z,70.84
2023-03-21T03:17:34.345Z,70.74
2023-03-21T03:18:34.295Z,70.74
2023-03-21T03:19:41.694Z,71.15
2023-03-21T03:20:34.276Z,71.15
2023-03-21T03:21:34.268Z,70.53
2023-03-21T03:22:34.274Z,70.74
2023-03-21T03:23:34.235Z,70.74
2023-03-21T03:24:39.247Z,70.64
2023-03-21T03:25:42.474Z,70.74
2023-03-21T03:26:34.209Z,70.33
2023-03-21T03:27:34.204Z,70.33
2023-03-21T03:28:34.215Z,70.64
2023-03-21T03:29:34.177Z,70.74
2023-03-21T03:30:42.228Z,70.33
2023-03-21T03:31:34.186Z,70.64
2023-03-21T03:32:34.163Z,70.64
2023-03-21T03:33:34.144Z,71.36
2023-03-21T03:34:34.133Z,70.94
2023-03-21T03:35:39.206Z,70.57
2023-03-21T03:36:34.147Z,70.87
2023-03-21T03:37:34.082Z,70.98
2023-03-21T03:38:34.078Z,70.98
2023-03-21T03:39:34.058Z,71.08
2023-03-21T03:40:35.889Z,70.94
2023-03-21T03:42:00.909Z,70.98
2023-03-21T03:42:34.027Z,71.04
2023-03-21T03:43:34.020Z,70.98
2023-03-21T03:44:34.001Z,71.18
2023-03-21T03:45:33.990Z,71.08
2023-03-21T03:46:39.066Z,71.08
2023-03-21T03:47:37.932Z,71.08
2023-03-21T03:48:34.089Z,70.87
2023-03-21T03:49:33.965Z,70.57
2023-03-21T03:50:33.947Z,70.77
2023-03-21T03:51:33.930Z,71.08
2023-03-21T03:52:33.929Z,70.87
2023-03-21T03:53:33.908Z,70.74
2023-03-21T03:54:33.904Z,70.67
2023-03-21T03:55:33.910Z,71.08
2023-03-21T03:56:33.867Z,70.98
2023-03-21T03:57:38.879Z,71.08
2023-03-21T03:58:44.835Z,70.84
2023-03-21T03:59:33.836Z,70.94
2023-03-21T04:00:33.826Z,70.67
2023-03-21T04:01:33.843Z,70.87
2023-03-21T04:02:33.836Z,70.87
2023-03-21T04:03:47.724Z,70.87
2023-03-21T04:04:33.834Z,71.39
2023-03-21T04:05:33.790Z,70.67
2023-03-21T04:06:33.761Z,70.36
2023-03-21T04:07:33.760Z,70.57
2023-03-21T04:08:38.788Z,70.77
2023-03-21T04:09:43.513Z,70.77
2023-03-21T04:10:33.745Z,70.87
2023-03-21T04:11:33.704Z,70.87
2023-03-21T04:12:33.694Z,71.18
2023-03-21T04:13:33.685Z,70.87
2023-03-21T04:14:44.101Z,70.57
2023-03-21T04:15:33.671Z,70.98
2023-03-21T04:16:35.787Z,71.08
2023-03-21T04:17:33.641Z,71.08
2023-03-21T04:18:33.639Z,71.08
2023-03-21T04:19:38.649Z,71.08
2023-03-21T04:20:37.250Z,70.98
2023-03-21T04:21:33.617Z,70.87
2023-03-21T04:22:33.605Z,70.57
2023-03-21T04:23:33.571Z,70.67
2023-03-21T04:24:33.571Z,71.08
2023-03-21T04:25:34.598Z,70.87
2023-03-21T04:26:33.552Z,71.08
2023-03-21T04:27:33.528Z,70.57
2023-03-21T04:28:33.572Z,70.94
2023-03-21T04:29:33.522Z,71.18
2023-03-21T04:30:38.882Z,70.87
2023-03-21T04:31:33.498Z,71.18
2023-03-21T04:32:33.475Z,70.98
2023-03-21T04:33:33.463Z,70.98
2023-03-21T04:34:33.479Z,71.08
2023-03-21T04:35:33.494Z,71.08
2023-03-21T04:36:33.430Z,71.08
2023-03-21T04:37:33.446Z,70.77
2023-03-21T04:38:33.409Z,70.67
2023-03-21T04:39:33.406Z,70.87
2023-03-21T04:40:33.405Z,70.87
2023-03-21T04:41:38.394Z,71.18
2023-03-21T04:42:33.363Z,70.98
2023-03-21T04:43:33.351Z,70.77
2023-03-21T04:44:33.381Z,71.08
2023-03-21T04:45:33.368Z,70.98
2023-03-21T04:46:33.336Z,70.87
2023-03-21T04:47:33.308Z,70.77
2023-03-21T04:48:33.294Z,70.77
2023-03-21T04:49:33.303Z,70.98
2023-03-21T04:50:33.270Z,70.67
2023-03-21T04:51:33.262Z,70.98
2023-03-21T04:52:38.326Z,70.98
2023-03-21T04:53:33.244Z,71.18
2023-03-21T04:54:33.238Z,70.91
2023-03-21T04:55:33.216Z,71.39
2023-03-21T04:56:33.202Z,70.91
2023-03-21T04:57:33.202Z,70.77
2023-03-21T04:58:33.199Z,71.32
2023-03-21T04:59:33.186Z,71.01
2023-03-21T05:00:33.170Z,70.98
2023-03-21T05:01:33.238Z,70.81
2023-03-21T05:02:33.139Z,71.62
2023-03-21T05:03:38.164Z,71.42
2023-03-21T05:04:33.144Z,71.52
2023-03-21T05:05:33.102Z,71.32
2023-03-21T05:06:33.096Z,71.22
2023-03-21T05:07:33.083Z,71.93
2023-03-21T05:08:33.091Z,72.24
2023-03-21T05:09:33.072Z,72.24
2023-03-21T05:10:33.073Z,72.44
2023-03-21T05:11:33.037Z,71.83
2023-03-21T05:12:33.033Z,72.65
2023-03-21T05:13:33.019Z,72.55
2023-03-21T05:14:38.038Z,73.16
2023-03-21T05:15:32.993Z,72.55
2023-03-21T05:16:33.027Z,73.10
2023-03-21T05:17:32.970Z,73.10
2023-03-21T05:18:32.955Z,72.89
2023-03-21T05:19:32.946Z,72.99
2023-03-21T05:20:32.942Z,72.89
2023-03-21T05:21:32.924Z,72.68
2023-03-21T05:22:32.928Z,72.68
2023-03-21T05:23:32.907Z,72.96
2023-03-21T05:24:32.919Z,73.16
2023-03-21T05:25:38.216Z,73.30
2023-03-21T05:26:32.870Z,73.10
2023-03-21T05:27:32.858Z,73.30
2023-03-21T05:28:32.873Z,72.89
2023-03-21T05:29:32.843Z,72.89
2023-03-21T05:30:32.842Z,73.10
2023-03-21T05:31:32.814Z,72.89
2023-03-21T05:32:32.802Z,72.99
2023-03-21T05:33:32.792Z,72.78
2023-03-21T05:34:32.813Z,72.78
2023-03-21T05:35:32.782Z,72.99
2023-03-21T05:36:37.778Z,72.78
2023-03-21T05:37:32.748Z,72.99
2023-03-21T05:38:32.745Z,73.19
2023-03-21T05:39:32.726Z,73.10
2023-03-21T05:40:32.748Z,72.68
2023-03-21T05:41:32.714Z,72.89
2023-03-21T05:42:32.696Z,73.19
2023-03-21T05:43:32.682Z,72.89
2023-03-21T05:44:32.673Z,72.89
2023-03-21T05:45:32.672Z,72.99
2023-03-21T05:46:32.700Z,73.19
2023-03-21T05:47:37.661Z,73.91
2023-03-21T05:48:32.623Z,73.71
2023-03-21T05:49:32.613Z,73.71
2023-03-21T05:50:32.611Z,73.61
2023-03-21T05:51:32.591Z,73.50
2023-03-21T05:52:32.653Z,73.71
2023-03-21T05:53:32.576Z,72.96
2023-03-21T05:54:32.564Z,72.68
2023-03-21T05:55:32.558Z,72.86
2023-03-21T05:56:32.565Z,72.68
2023-03-21T05:57:32.530Z,73.30
2023-03-21T05:58:37.584Z,72.78
2023-03-21T05:59:32.508Z,73.06
2023-03-21T06:00:32.502Z,72.86
2023-03-21T06:01:32.481Z,72.86
2023-03-21T06:02:32.506Z,73.19
2023-03-21T06:03:32.514Z,73.16
2023-03-21T06:04:32.480Z,73.19
2023-03-21T06:05:32.445Z,73.16
2023-03-21T06:06:32.434Z,72.86
2023-03-21T06:07:32.420Z,72.96
2023-03-21T06:08:32.412Z,72.78
2023-03-21T06:09:37.424Z,73.16
2023-03-21T06:10:32.419Z,73.57
2023-03-21T06:11:32.375Z,74.08
2023-03-21T06:12:32.379Z,74.22
2023-03-21T06:13:32.352Z,73.57
2023-03-21T06:14:32.352Z,73.57
2023-03-21T06:15:32.343Z,73.68
2023-03-21T06:16:32.323Z,72.86
2023-03-21T06:17:32.308Z,72.75
2023-03-21T06:18:32.292Z,73.06
2023-03-21T06:19:32.285Z,73.23
2023-03-21T06:20:37.302Z,73.13
2023-03-21T06:21:32.260Z,72.11
2023-03-21T06:22:32.261Z,71.08
2023-03-21T06:23:32.242Z,71.28
2023-03-21T06:24:32.226Z,71.08
2023-03-21T06:25:32.237Z,71.18
2023-03-21T06:26:32.203Z,71.59
2023-03-21T06:27:32.193Z,71.28
2023-03-21T06:28:32.204Z,71.36
2023-03-21T06:29:32.177Z,71.45
2023-03-21T06:30:32.168Z,71.45
2023-03-21T06:31:37.256Z,70.84
2023-03-21T06:32:32.136Z,70.94
2023-03-21T06:33:32.126Z,70.74
2023-03-21T06:34:32.123Z,70.64
2023-03-21T06:35:32.129Z,70.94
2023-03-21T06:36:32.091Z,71.04
2023-03-21T06:37:32.085Z,70.94
2023-03-21T06:38:32.069Z,71.36
2023-03-21T06:39:32.059Z,70.94
2023-03-21T06:40:32.095Z,71.45
2023-03-21T06:41:32.061Z,70.64
2023-03-21T06:42:37.064Z,71.04
2023-03-21T06:43:32.022Z,71.15
2023-03-21T06:44:32.035Z,70.91
2023-03-21T06:45:32.006Z,71.12
2023-03-21T06:46:32.072Z,71.01
2023-03-21T06:47:31.978Z,70.81
2023-03-21T06:48:31.958Z,71.12
2023-03-21T06:49:31.951Z,70.91
2023-03-21T06:50:31.943Z,70.64
2023-03-21T06:51:31.955Z,70.94
2023-03-21T06:52:31.939Z,70.67
2023-03-21T06:53:36.927Z,72.41
2023-03-21T06:54:31.912Z,72.61
2023-03-21T06:55:31.908Z,72.75
2023-03-21T06:56:31.879Z,73.13
2023-03-21T06:57:31.867Z,72.82
2023-03-21T06:58:31.865Z,73.13
2023-03-21T06:59:31.837Z,72.82
2023-03-21T07:00:31.952Z,72.38
2023-03-21T07:01:31.819Z,72.14
2023-03-21T07:02:31.850Z,70.91
2023-03-21T07:03:31.793Z,71.42
2023-03-21T07:04:36.836Z,71.08
2023-03-21T07:05:31.782Z,71.01
2023-03-21T07:06:31.762Z,70.81
2023-03-21T07:07:31.752Z,70.91
2023-03-21T07:08:31.745Z,71.08
2023-03-21T07:09:31.728Z,70.67
2023-03-21T07:10:31.755Z,70.26
2023-03-21T07:11:31.709Z,69.72
2023-03-21T07:12:31.697Z,69.11
2023-03-21T07:13:31.696Z,69.11
2023-03-21T07:14:31.677Z,69.11
2023-03-21T07:15:37.020Z,68.16
2023-03-21T07:16:31.739Z,68.57
2023-03-21T07:17:31.641Z,68.05
2023-03-21T07:18:31.631Z,67.78
2023-03-21T07:19:31.619Z,68.66
2023-03-21T07:20:31.608Z,68.57
2023-03-21T07:21:31.607Z,68.57
2023-03-21T07:22:31.605Z,68.60
2023-03-21T07:23:31.577Z,69.01
2023-03-21T07:24:31.558Z,69.01
2023-03-21T07:25:31.678Z,69.01
2023-03-21T07:26:36.571Z,68.80
2023-03-21T07:27:31.562Z,68.46
2023-03-21T07:28:31.543Z,68.05
2023-03-21T07:29:31.513Z,68.23
2023-03-21T07:30:31.490Z,67.82
2023-03-21T07:31:31.577Z,67.41
2023-03-21T07:32:31.473Z,66.80
2023-03-21T07:33:31.461Z,67.71
2023-03-21T07:34:31.470Z,66.90
2023-03-21T07:35:31.440Z,67.10
2023-03-21T07:36:31.433Z,67.30
2023-03-21T07:37:38.139Z,67.00
2023-03-21T07:38:31.400Z,67.51
2023-03-21T07:39:31.399Z,67.00
2023-03-21T07:40:31.409Z,67.21
2023-03-21T07:41:31.389Z,66.86
2023-03-21T07:43:31.358Z,67.18
2023-03-21T07:44:31.335Z,66.63
2023-03-21T07:45:31.332Z,66.66
2023-03-21T07:46:31.375Z,65.71
2023-03-21T07:47:31.321Z,66.66
2023-03-21T07:48:36.312Z,66.86
2023-03-21T07:49:31.287Z,65.92
2023-03-21T07:50:31.272Z,65.41
2023-03-21T07:51:31.303Z,65.10
2023-03-21T07:52:31.290Z,65.10
2023-03-21T07:53:31.234Z,66.15
2023-03-21T07:54:31.224Z,66.12
2023-03-21T07:55:31.218Z,65.81
2023-03-21T07:56:31.223Z,65.51
2023-03-21T07:57:31.199Z,65.71
2023-03-21T07:58:31.195Z,65.07
2023-03-21T07:59:36.188Z,64.76
2023-03-21T08:00:31.161Z,64.94
2023-03-21T08:01:31.154Z,63.96
2023-03-21T08:02:31.140Z,61.97
2023-03-21T08:03:31.237Z,60.69
2023-03-21T08:04:31.128Z,59.21
2023-03-21T08:05:31.097Z,57.35
2023-03-21T08:06:31.102Z,58.29
2023-03-21T08:07:31.077Z,57.15
2023-03-21T08:08:31.076Z,57.43
2023-03-21T08:09:31.336Z,57.23
2023-03-21T08:10:36.101Z,56.49
2023-03-21T08:11:31.040Z,56.46
2023-03-21T08:12:31.018Z,55.70
2023-03-21T08:13:31.009Z,54.94
2023-03-21T08:14:30.997Z,53.93
2023-03-21T08:15:30.988Z,54.56
2023-03-21T08:16:31.049Z,54.28
2023-03-21T08:17:30.966Z,54.99
2023-03-21T08:18:30.951Z,54.71
2023-03-21T08:19:30.960Z,56.52
2023-03-21T08:20:30.932Z,56.01
2023-03-21T08:21:35.957Z,56.92
2023-03-21T08:22:30.933Z,56.09
2023-03-21T08:23:30.898Z,56.49
2023-03-21T08:24:30.888Z,55.58
2023-03-21T08:25:30.887Z,55.45
2023-03-21T08:26:30.874Z,55.25
2023-03-21T08:27:30.858Z,52.86
2023-03-21T08:28:30.885Z,53.85
2023-03-21T08:29:30.833Z,53.34
2023-03-21T08:30:30.898Z,55.19
2023-03-21T08:31:30.818Z,55.98
2023-03-21T08:32:35.820Z,56.82
2023-03-21T08:33:30.789Z,57.15
2023-03-21T08:34:30.787Z,57.59
2023-03-21T08:35:30.788Z,58.20
2023-03-21T08:36:30.770Z,58.60
2023-03-21T08:37:30.742Z,57.79
2023-03-21T08:38:30.729Z,57.28
2023-03-21T08:39:30.759Z,57.21
2023-03-21T08:40:30.729Z,57.71
2023-03-21T08:41:30.698Z,57.81
2023-03-21T08:42:30.739Z,57.48
2023-03-21T08:43:35.703Z,57.59
2023-03-21T08:44:30.661Z,57.92
2023-03-21T08:45:30.646Z,57.92
2023-03-21T08:46:30.727Z,58.04
2023-03-21T08:47:30.637Z,57.31
2023-03-21T08:48:30.618Z,57.51
2023-03-21T08:49:30.605Z,57.10
2023-03-21T08:50:30.595Z,57.59
2023-03-21T08:51:30.601Z,56.80
2023-03-21T08:52:30.616Z,58.38
2023-03-21T08:53:30.564Z,59.30
2023-03-21T08:54:35.576Z,59.91
2023-03-21T08:55:30.538Z,59.37
2023-03-21T08:56:30.535Z,59.60
2023-03-21T08:57:30.525Z,60.11
2023-03-21T08:58:30.534Z,59.57
2023-03-21T08:59:30.494Z,59.77
2023-03-21T09:00:30.494Z,60.49
2023-03-21T09:01:30.510Z,59.60
2023-03-21T09:02:30.507Z,60.61
2023-03-21T09:03:30.455Z,61.22
2023-03-21T09:04:30.490Z,61.46
2023-03-21T09:05:35.794Z,61.46
2023-03-21T09:06:30.420Z,61.56
2023-03-21T09:07:30.437Z,61.33
2023-03-21T09:08:30.397Z,60.89
2023-03-21T09:09:30.385Z,60.69
2023-03-21T09:10:30.416Z,60.89
2023-03-21T09:11:30.361Z,60.69
2023-03-21T09:12:30.358Z,60.89
2023-03-21T09:13:30.349Z,60.89
2023-03-21T09:14:30.338Z,60.79
2023-03-21T09:15:30.320Z,60.79
2023-03-21T09:16:35.360Z,60.79
2023-03-21T09:17:30.308Z,61.51
2023-03-21T09:18:30.286Z,61.91
2023-03-21T09:19:30.276Z,61.40
2023-03-21T09:20:30.265Z,62.11
2023-03-21T09:21:30.244Z,62.35
2023-03-21T09:22:30.262Z,61.97
2023-03-21T09:23:30.250Z,63.09
2023-03-21T09:24:30.216Z,62.27
2023-03-21T09:25:30.221Z,62.88
2023-03-21T09:26:30.196Z,62.17
2023-03-21T09:27:35.991Z,62.78
2023-03-21T09:28:30.180Z,62.04
2023-03-21T09:29:30.159Z,61.94
2023-03-21T09:30:30.228Z,61.20
2023-03-21T09:31:30.184Z,61.40
2023-03-21T09:32:30.135Z,60.59
2023-03-21T09:33:30.125Z,59.88
2023-03-21T09:34:30.118Z,60.18
2023-03-21T09:35:30.085Z,60.46
2023-03-21T09:36:30.079Z,60.46
2023-03-21T09:37:30.104Z,59.64
2023-03-21T09:38:35.095Z,58.94
2023-03-21T09:39:30.068Z,58.83
2023-03-21T09:40:30.048Z,58.29
2023-03-21T09:41:30.021Z,58.29
2023-03-21T09:42:30.025Z,58.29
2023-03-21T09:43:29.999Z,57.89
2023-03-21T09:44:29.984Z,57.92
2023-03-21T09:45:29.975Z,58.70
2023-03-21T09:46:30.012Z,57.89
2023-03-21T09:47:29.963Z,58.63
2023-03-21T09:48:30.216Z,59.14
2023-03-21T09:49:34.956Z,58.83
2023-03-21T09:50:29.916Z,58.91
2023-03-21T09:51:29.906Z,58.29
2023-03-21T09:52:29.925Z,58.47
2023-03-21T09:53:29.881Z,57.86
2023-03-21T09:54:29.891Z,57.46
2023-03-21T09:55:29.872Z,58.17
2023-03-21T09:56:29.850Z,58.29
2023-03-21T09:57:29.851Z,59.01
2023-03-21T09:58:29.855Z,59.01
2023-03-21T09:59:31.738Z,59.84
2023-03-21T10:00:34.871Z,59.88
2023-03-21T10:01:29.842Z,60.18
2023-03-21T10:02:29.791Z,59.84
2023-03-21T10:03:29.769Z,59.21
2023-03-21T10:04:29.840Z,58.80
2023-03-21T10:05:29.744Z,58.80
2023-03-21T10:06:29.735Z,58.73
2023-03-21T10:07:29.754Z,59.24
2023-03-21T10:08:29.740Z,58.94
2023-03-21T10:09:29.700Z,57.81
2023-03-21T10:10:29.722Z,57.81
2023-03-21T10:11:34.729Z,58.63
2023-03-21T10:12:29.678Z,58.60
2023-03-21T10:13:29.670Z,57.89
2023-03-21T10:14:29.648Z,57.28
2023-03-21T10:15:29.641Z,57.35
2023-03-21T10:16:29.749Z,57.35
2023-03-21T10:17:29.624Z,56.95
2023-03-21T10:18:29.614Z,56.85
2023-03-21T10:19:29.616Z,57.81
2023-03-21T10:20:29.582Z,59.27
2023-03-21T10:21:56.934Z,59.57
2023-03-21T10:22:35.628Z,59.57
2023-03-21T10:23:29.556Z,60.08
2023-03-21T10:24:29.540Z,59.88
2023-03-21T10:25:29.521Z,59.47
2023-03-21T10:26:29.533Z,59.44
2023-03-21T10:27:29.504Z,59.98
2023-03-21T10:28:32.748Z,59.88
2023-03-21T10:29:29.675Z,59.47
2023-03-21T10:30:29.477Z,59.67
2023-03-21T10:31:29.487Z,59.95
2023-03-21T10:32:29.452Z,59.84
2023-03-21T10:33:34.464Z,59.03
2023-03-21T10:34:29.466Z,59.14
2023-03-21T10:35:29.414Z,59.03
2023-03-21T10:36:29.420Z,58.94
2023-03-21T10:37:29.399Z,58.60
2023-03-21T10:38:29.383Z,57.68
2023-03-21T10:39:29.363Z,58.20
2023-03-21T10:40:29.365Z,58.70
2023-03-21T10:41:29.357Z,58.91
2023-03-21T10:42:29.409Z,59.64
2023-03-21T10:43:29.369Z,59.88
2023-03-21T10:44:34.370Z,59.54
2023-03-21T10:45:29.338Z,60.05
2023-03-21T10:46:29.683Z,59.72
2023-03-21T10:47:29.535Z,58.91
2023-03-21T10:48:29.506Z,59.34
2023-03-21T10:49:30.121Z,58.73
2023-03-21T10:50:29.332Z,58.60
2023-03-21T10:51:29.241Z,58.50
2023-03-21T10:52:29.213Z,58.98
2023-03-21T10:53:29.235Z,58.91
2023-03-21T10:54:29.196Z,59.31
2023-03-21T10:55:34.204Z,60.97
2023-03-21T10:56:29.198Z,60.66
2023-03-21T10:57:29.156Z,61.27
2023-03-21T10:58:29.188Z,61.40
2023-03-21T10:59:29.151Z,61.60
2023-03-21T11:00:29.156Z,62.04
2023-03-21T11:01:29.138Z,62.72
2023-03-21T11:02:29.159Z,61.60
2023-03-21T11:03:29.134Z,63.13
2023-03-21T11:04:29.076Z,63.33
2023-03-21T11:05:29.062Z,62.01
2023-03-21T11:06:34.075Z,63.40
2023-03-21T11:07:29.049Z,62.49
2023-03-21T11:08:29.085Z,62.49
2023-03-21T11:09:29.014Z,63.20
2023-03-21T11:10:29.445Z,61.47
2023-03-21T11:11:29.000Z,63.54
2023-03-21T11:12:28.991Z,63.43
2023-03-21T11:13:28.978Z,63.84
2023-03-21T11:14:29.021Z,63.84
2023-03-21T11:15:28.950Z,63.43
2023-03-21T11:16:29.008Z,63.71
2023-03-21T11:17:33.951Z,62.29
2023-03-21T11:18:28.946Z,63.60
2023-03-21T11:19:28.946Z,62.79
2023-03-21T11:20:28.929Z,63.60
2023-03-21T11:21:29.637Z,63.20
2023-03-21T11:22:28.876Z,61.98
2023-03-21T11:23:28.870Z,62.97
2023-03-21T11:24:28.878Z,63.68
2023-03-21T11:25:28.837Z,64.12
2023-03-21T11:26:28.844Z,63.88
2023-03-21T11:27:28.815Z,64.09
2023-03-21T11:28:33.834Z,63.78
2023-03-21T11:29:28.805Z,63.78
2023-03-21T11:30:28.830Z,62.56
2023-03-21T11:31:28.774Z,61.27
2023-03-21T11:32:28.782Z,61.14
2023-03-21T11:33:28.752Z,62.56
2023-03-21T11:34:28.751Z,63.37
2023-03-21T11:35:28.740Z,61.14
2023-03-21T11:36:28.725Z,61.82
2023-03-21T11:37:28.704Z,61.34
2023-03-21T11:38:28.716Z,61.04
2023-03-21T11:39:33.746Z,61.65
2023-03-21T11:40:28.712Z,63.34
2023-03-21T11:41:28.681Z,61.32
2023-03-21T11:42:28.653Z,60.50
2023-03-21T11:43:28.636Z,60.40
2023-03-21T11:44:28.638Z,60.60
2023-03-21T11:45:28.624Z,59.56
2023-03-21T11:46:28.665Z,59.23
2023-03-21T11:47:28.595Z,58.92
2023-03-21T11:48:28.716Z,59.03
2023-03-21T11:49:28.572Z,59.33
2023-03-21T11:50:33.619Z,59.26
2023-03-21T11:51:28.566Z,58.92
2023-03-21T11:52:28.552Z,57.60
2023-03-21T11:53:28.524Z,57.71
2023-03-21T11:54:28.540Z,58.92
2023-03-21T11:55:28.517Z,58.39
2023-03-21T11:56:28.523Z,57.60
2023-03-21T11:57:28.479Z,57.81
2023-03-21T11:58:28.504Z,58.82
2023-03-21T11:59:28.456Z,58.45
2023-03-21T12:00:28.446Z,58.24
2023-03-21T12:01:33.510Z,58.75
2023-03-21T12:02:28.490Z,57.73
2023-03-21T12:03:30.738Z,57.40
2023-03-21T12:04:28.478Z,57.81
2023-03-21T12:05:28.389Z,57.71
2023-03-21T12:06:28.391Z,57.81
2023-03-21T12:07:28.372Z,57.37
2023-03-21T12:08:28.369Z,57.17
2023-03-21T12:09:28.349Z,57.68
2023-03-21T12:10:28.343Z,57.45
2023-03-21T12:11:28.329Z,56.84
2023-03-21T12:12:39.102Z,56.54
2023-03-21T12:13:28.304Z,56.54
2023-03-21T12:14:28.301Z,56.44
2023-03-21T12:15:28.324Z,56.44
2023-03-21T12:16:28.343Z,56.34
2023-03-21T12:17:28.279Z,55.90
2023-03-21T12:18:28.248Z,55.63
2023-03-21T12:19:28.232Z,56.13
2023-03-21T12:20:28.268Z,56.84
2023-03-21T12:21:28.235Z,56.31
2023-03-21T12:22:28.220Z,56.21
2023-03-21T12:23:33.250Z,56.51
2023-03-21T12:24:28.183Z,55.70
2023-03-21T12:25:28.165Z,56.51
2023-03-21T12:26:28.179Z,56.64
2023-03-21T12:27:28.153Z,56.84
2023-03-21T12:28:33.143Z,56.64
2023-03-21T12:29:28.128Z,55.60
2023-03-21T12:30:28.111Z,55.37
2023-03-21T12:31:28.168Z,55.68
2023-03-21T12:32:28.103Z,54.66
2023-03-21T12:33:28.199Z,55.57
2023-03-21T12:34:33.108Z,55.47
2023-03-21T12:35:28.052Z,54.56
2023-03-21T12:36:28.049Z,54.89
2023-03-21T12:37:28.037Z,55.40
2023-03-21T12:38:28.020Z,55.40
2023-03-21T12:39:28.010Z,55.60
2023-03-21T12:40:28.006Z,55.60
2023-03-21T12:41:27.981Z,55.70
2023-03-21T12:42:27.982Z,55.43
2023-03-21T12:43:27.960Z,55.80
2023-03-21T12:44:27.949Z,55.70
2023-03-21T12:45:45.855Z,54.49
2023-03-21T12:46:27.990Z,55.57
2023-03-21T12:47:27.927Z,54.66
2023-03-21T12:48:27.960Z,54.86
2023-03-21T12:49:28.009Z,54.97
2023-03-21T12:50:27.884Z,54.86
2023-03-21T12:51:27.893Z,54.74
2023-03-21T12:52:27.899Z,54.46
2023-03-21T12:53:27.854Z,55.32